Portada
METAR-TAF:

METAR-TAF

Aeropuertos :

Ljungbyhed, Suecia

latitud: 56-04N, longitud: 013-12E, altitud: 43 m

Observación

El informe se hizo hace 13 minutos, a las 10:20 UTC
Viento 13 kt del oeste-noroeste
Temperatura 10°C
Humedad 53%
Presión 1014 hPa
Visibilidad 10 km o más

METAR: ESTL 081020Z AUTO 29013KT 9999 FEW033/// SCT054/// 10/01 Q1014

Hora: 12:33 (10:33 UTC)

Pronóstico

El informe se hizo hace 23 horas y 20 minutos, a las 11:13 UTC
Pronóstico válido del 07 a las 12 UTC al 07 a las 15 UTC
Viento 6 kt del norte
Visibilidad 10 km o más
Cielo nuboso a una altura de 2500 ft
Temporalmente
del 07 a las 12 UTC al 07 a las 15 UTC
Nubes dispersas a una altura de 1800 ft, Cumulonimbus.

TAF: ESTL 071113Z 0712/0715 35006KT 9999 BKN025 TEMPO 0712/0715 SCT018CB

Observaciones y pronósticos meteorológicos de más de 4000 aeropuertos (mensajes METAR y TAF).

Los puntos amarillos y rojos representan las estaciones disponibles.

Ponga el ratón en el punto deseado para ver el nombre de la estación.

Haga clic para ver las observaciones y los pronósticos meteorológicos.

Para cambiar el mapa : haga clic en los botones verdes con una cruz de color negro para hacer un zoom, en el botón verde con un guión para alejar o en las flechas verdes para mapas adyacentes.


METAR-TAF: